Time;durP1;ratioP1;P1;durP2;ratioP2;P2;SDS_P1;SDS_P2;PMS_P1;PMS_P2;Temp;Humidity;BMP_temperature;BMP_pressure;BME280_temperature;BME280_humidity;BME280_pressure;Samples;Min_cycle;Max_cycle;Signal;HPM_P1;HPM_P2
2022/10/09 00:00:40;;;;;;;18.40;7.57;;;;;;;11.29;70.92;100854.97;5093980;28;20043;-85
2022/10/09 00:03:07;;;;;;;17.27;7.32;;;;;;;11.22;71.17;100851.94;5072397;28;20048;-85
2022/10/09 00:05:34;;;;;;;17.55;7.13;;;;;;;11.41;70.36;100851.38;5087821;28;20051;-86
2022/10/09 00:08:01;;;;;;;16.50;7.57;;;;;;;11.35;70.74;100846.53;5065161;28;20665;-86
2022/10/09 00:10:28;;;;;;;20.73;7.40;;;;;;;11.32;70.88;100849.41;5060094;28;20058;-86
2022/10/09 00:12:55;;;;;;;22.95;8.15;;;;;;;11.18;71.25;100849.59;5056709;28;20048;-86
2022/10/09 00:15:22;;;;;;;16.05;8.95;;;;;;;11.27;71.35;100846.25;5077596;28;20096;-86
2022/10/09 00:17:49;;;;;;;22.20;8.00;;;;;;;11.28;70.79;100842.63;5069986;28;20085;-86
2022/10/09 00:20:15;;;;;;;19.77;7.80;;;;;;;11.27;70.26;100844.44;5089846;28;20028;-86
2022/10/09 00:22:42;;;;;;;16.40;7.25;;;;;;;11.22;70.25;100843.06;5060414;28;20717;-85
2022/10/09 00:25:09;;;;;;;23.90;8.15;;;;;;;11.25;70.14;100854.34;5077808;28;20622;-86
2022/10/09 00:27:36;;;;;;;18.23;8.38;;;;;;;11.20;70.09;100845.03;5089182;28;20039;-86
2022/10/09 00:30:03;;;;;;;18.45;7.10;;;;;;;11.22;70.24;100837.75;5075213;28;20040;-85
2022/10/09 00:32:30;;;;;;;25.90;7.80;;;;;;;11.23;70.42;100840.31;5045632;28;20135;-86
2022/10/09 00:34:56;;;;;;;14.07;7.13;;;;;;;11.09;70.49;100848.47;5073776;28;20043;-87
2022/10/09 00:37:23;;;;;;;13.93;6.85;;;;;;;11.10;70.74;100838.72;5076496;28;20483;-86
2022/10/09 00:39:50;;;;;;;16.27;6.47;;;;;;;11.03;70.81;100846.28;5077021;28;20421;-86
2022/10/09 00:42:17;;;;;;;17.20;7.47;;;;;;;10.98;70.90;100848.44;5076665;28;20052;-86
2022/10/09 00:44:56;;;;;;;15.55;7.57;;;;;;;10.84;70.68;100847.66;5076425;28;20048;-85
2022/10/09 00:47:29;;;;;;;17.80;7.97;;;;;;;10.78;70.90;100848.06;5055355;28;20399;-86
2022/10/09 00:50:00;;;;;;;17.38;6.90;;;;;;;10.80;70.98;100840.00;5077650;28;20055;-85
2022/10/09 00:52:27;;;;;;;22.55;7.93;;;;;;;10.85;71.12;100835.19;5071630;28;20553;-85
2022/10/09 00:54:55;;;;;;;18.23;7.60;;;;;;;10.88;71.02;100839.44;5060286;28;20134;-85
2022/10/09 00:57:22;;;;;;;21.77;7.18;;;;;;;10.93;70.79;100832.81;5055151;28;20044;-84
2022/10/09 00:59:49;;;;;;;16.85;7.47;;;;;;;10.83;70.35;100837.94;5058936;28;20123;-85
2022/10/09 01:02:15;;;;;;;15.88;6.60;;;;;;;10.74;70.73;100835.16;5057173;28;20051;-85
2022/10/09 01:04:42;;;;;;;13.35;6.25;;;;;;;10.65;70.90;100832.19;5060447;28;20059;-85
2022/10/09 01:07:17;;;;;;;18.90;7.05;;;;;;;10.54;70.64;100823.31;5058497;28;20059;-85
2022/10/09 01:09:56;;;;;;;17.17;7.03;;;;;;;10.56;70.55;100835.53;5068997;28;20441;-86
2022/10/09 01:12:59;;;;;;;18.45;6.60;;;;;;;10.57;70.37;100823.94;5070031;28;20074;-86
2022/10/09 01:15:29;;;;;;;14.02;6.88;;;;;;;10.61;70.55;100824.56;5085121;28;20169;-86
2022/10/09 01:18:23;;;;;;;16.38;6.30;;;;;;;10.43;71.00;100826.72;5076380;28;20075;-85
2022/10/09 01:21:01;;;;;;;17.50;6.95;;;;;;;10.56;70.26;100824.91;5060037;28;20044;-86
2022/10/09 01:23:53;;;;;;;18.00;7.03;;;;;;;10.41;70.95;100824.19;5071219;28;20056;-86
2022/10/09 01:26:26;;;;;;;19.10;7.50;;;;;;;10.52;70.59;100817.25;5097631;28;20047;-86
2022/10/09 01:28:56;;;;;;;18.33;6.38;;;;;;;10.46;70.31;100825.66;5076390;28;20391;-85
2022/10/09 01:31:26;;;;;;;22.02;7.18;;;;;;;10.56;70.04;100819.59;5074135;28;20060;-86
2022/10/09 01:33:53;;;;;;;25.20;7.55;;;;;;;10.54;70.36;100815.34;5056607;28;20068;-86
2022/10/09 01:36:20;;;;;;;24.08;6.18;;;;;;;10.47;70.46;100814.09;5072958;28;20101;-86
2022/10/09 01:38:47;;;;;;;16.00;6.78;;;;;;;10.48;70.69;100811.34;5068113;28;20052;-85
2022/10/09 01:41:14;;;;;;;17.17;6.13;;;;;;;10.42;70.79;100814.41;5089772;28;20399;-85
2022/10/09 01:43:41;;;;;;;17.88;6.40;;;;;;;10.40;70.39;100811.03;5069540;28;20075;-86
2022/10/09 01:46:17;;;;;;;15.02;6.65;;;;;;;10.25;70.46;100812.09;5059267;28;20051;-86
2022/10/09 01:48:48;;;;;;;13.55;7.07;;;;;;;10.30;70.39;100810.81;5059399;28;20048;-85
2022/10/09 01:51:16;;;;;;;15.60;6.97;;;;;;;10.30;70.95;100802.03;5052205;28;20100;-85
2022/10/09 01:53:43;;;;;;;13.80;6.97;;;;;;;10.34;70.54;100804.34;5065415;28;20051;-86
2022/10/09 01:56:18;;;;;;;11.57;6.50;;;;;;;10.15;70.18;100794.19;5073727;28;20079;-86
2022/10/09 01:58:50;;;;;;;17.33;6.47;;;;;;;10.22;70.70;100795.41;5090777;28;20036;-86
2022/10/09 02:01:20;;;;;;;18.45;6.65;;;;;;;10.18;70.63;100790.47;5084192;28;20497;-86
2022/10/09 02:03:48;;;;;;;15.45;6.32;;;;;;;10.26;70.56;100793.41;5071101;28;20035;-86
2022/10/09 02:06:16;;;;;;;19.88;6.85;;;;;;;10.09;70.09;100788.47;5083169;28;20078;-86
2022/10/09 02:08:45;;;;;;;18.48;6.50;;;;;;;10.09;70.52;100786.66;5056636;28;20449;-86
2022/10/09 02:11:14;;;;;;;13.30;7.03;;;;;;;10.13;70.78;100784.63;5073421;28;20375;-85
2022/10/09 02:13:41;;;;;;;18.63;6.38;;;;;;;10.24;70.56;100791.81;5054221;28;20510;-85
2022/10/09 02:16:35;;;;;;;16.33;6.10;;;;;;;10.06;70.46;100781.56;5069365;28;20035;-86
2022/10/09 02:19:21;;;;;;;20.45;7.72;;;;;;;10.06;70.46;100775.41;5074710;28;20063;-86
2022/10/09 02:22:07;;;;;;;13.10;6.70;;;;;;;9.84;70.62;100776.06;5089747;28;20098;-85
2022/10/09 02:24:36;;;;;;;17.05;6.43;;;;;;;10.03;70.57;100778.28;5061413;28;20040;-85
2022/10/09 02:27:03;;;;;;;14.65;6.97;;;;;;;10.00;70.87;100774.06;5079244;28;20048;-85
2022/10/09 02:29:30;;;;;;;22.63;7.03;;;;;;;10.07;70.39;100775.28;5083202;28;20046;-86
2022/10/09 02:31:57;;;;;;;16.55;6.32;;;;;;;9.90;70.49;100773.00;5069775;28;20410;-86
2022/10/09 02:34:24;;;;;;;29.00;7.07;;;;;;;10.02;70.36;100777.41;5066177;28;20044;-86
2022/10/09 02:36:51;;;;;;;12.70;6.47;;;;;;;10.00;70.29;100769.59;5052118;28;20488;-86
2022/10/09 02:39:17;;;;;;;25.65;6.38;;;;;;;9.99;70.81;100770.53;5055184;28;20097;-86
2022/10/09 02:41:44;;;;;;;15.02;7.00;;;;;;;10.04;70.59;100772.84;5089267;28;20032;-86
2022/10/09 02:44:11;;;;;;;17.73;6.75;;;;;;;10.00;70.53;100766.09;5071241;28;20052;-86
2022/10/09 02:46:38;;;;;;;14.40;6.90;;;;;;;9.97;70.55;100774.25;5072403;28;20062;-86
2022/10/09 02:49:05;;;;;;;14.35;6.30;;;;;;;9.98;70.38;100768.00;5074148;28;20040;-86
2022/10/09 02:51:32;;;;;;;16.52;6.18;;;;;;;9.92;69.55;100771.06;5056236;28;20051;-86
2022/10/09 02:53:59;;;;;;;14.85;6.25;;;;;;;10.00;69.61;100766.09;5082072;28;20046;-86
2022/10/09 02:56:26;;;;;;;14.98;6.22;;;;;;;9.95;69.60;100760.25;5072350;28;20113;-87
2022/10/09 02:58:53;;;;;;;14.05;6.70;;;;;;;9.90;70.15;100757.09;5076013;28;20441;-86
2022/10/09 03:01:20;;;;;;;14.50;6.85;;;;;;;9.94;69.90;100756.72;5074913;28;20043;-85
2022/10/09 03:03:47;;;;;;;14.65;6.20;;;;;;;9.79;69.87;100760.47;5084546;28;20059;-86
2022/10/09 03:06:17;;;;;;;23.65;7.72;;;;;;;9.69;69.89;100752.34;5041891;28;20061;-86
2022/10/09 03:08:46;;;;;;;16.85;5.88;;;;;;;9.80;70.13;100759.53;5057501;28;20052;-86
2022/10/09 03:11:14;;;;;;;17.75;6.20;;;;;;;9.85;69.62;100762.72;5045130;28;20055;-86
2022/10/09 03:13:41;;;;;;;16.85;7.10;;;;;;;9.76;69.27;100764.19;5053623;28;20031;-86
2022/10/09 03:16:14;;;;;;;12.52;6.18;;;;;;;9.75;69.08;100761.66;5046152;28;20083;-85
2022/10/09 03:18:41;;;;;;;18.67;6.55;;;;;;;9.67;69.91;100767.50;5035767;28;20059;-86
2022/10/09 03:21:10;;;;;;;14.95;6.30;;;;;;;9.70;69.41;100763.78;5072821;28;20047;-86
2022/10/09 03:23:38;;;;;;;14.20;6.68;;;;;;;9.73;69.52;100767.06;5074286;28;20056;-86
2022/10/09 03:26:07;;;;;;;12.05;5.88;;;;;;;9.70;69.16;100753.19;5076538;28;20067;-86
2022/10/09 03:28:38;;;;;;;14.18;5.90;;;;;;;9.72;69.43;100765.38;5085420;28;20116;-86
2022/10/09 03:31:05;;;;;;;11.00;5.85;;;;;;;9.66;70.25;100771.09;5072697;28;20491;-86
2022/10/09 03:33:33;;;;;;;14.27;6.97;;;;;;;9.62;70.06;100766.97;5060464;28;20052;-86
2022/10/09 03:36:01;;;;;;;16.98;6.97;;;;;;;9.60;70.08;100760.94;5075564;28;20040;-85
2022/10/09 03:38:27;;;;;;;15.85;6.45;;;;;;;9.52;70.44;100768.56;5063373;28;20632;-85
2022/10/09 03:40:57;;;;;;;10.85;6.20;;;;;;;9.43;70.20;100762.09;5105731;28;20487;-85
2022/10/09 03:43:23;;;;;;;14.57;6.70;;;;;;;9.57;69.74;100769.09;5069589;28;20036;-85
2022/10/09 03:45:51;;;;;;;18.98;7.45;;;;;;;9.51;70.01;100762.41;5061021;28;20400;-85
2022/10/09 03:48:17;;;;;;;12.90;6.28;;;;;;;9.48;70.45;100773.22;5082432;28;20040;-86
2022/10/09 03:50:44;;;;;;;13.98;5.80;;;;;;;9.41;70.61;100769.28;5082054;28;20036;-86
2022/10/09 03:53:11;;;;;;;20.10;6.72;;;;;;;9.47;70.36;100773.34;5084384;28;20089;-86
2022/10/09 03:55:39;;;;;;;17.80;6.43;;;;;;;9.40;70.33;100772.06;5057709;28;20873;-85
2022/10/09 03:58:06;;;;;;;22.17;6.63;;;;;;;9.51;69.56;100774.81;5069734;28;20055;-85
2022/10/09 04:00:33;;;;;;;15.07;5.95;;;;;;;9.47;70.07;100770.69;5085486;28;20070;-85
2022/10/09 04:03:00;;;;;;;14.93;6.50;;;;;;;9.41;69.69;100779.06;5085673;28;20097;-85
2022/10/09 04:05:29;;;;;;;11.18;5.75;;;;;;;9.37;69.27;100774.94;5072566;28;20595;-85
2022/10/09 04:07:55;;;;;;;13.43;5.90;;;;;;;9.38;70.39;100784.56;5052488;28;20048;-86
2022/10/09 04:10:22;;;;;;;13.70;6.72;;;;;;;9.40;70.87;100777.38;5058721;28;20084;-86
2022/10/09 04:12:49;;;;;;;14.48;6.57;;;;;;;9.28;71.03;100789.63;5080237;28;20090;-86
2022/10/09 04:15:16;;;;;;;10.48;5.68;;;;;;;9.26;70.50;100781.81;5060176;28;20043;-85
2022/10/09 04:17:43;;;;;;;24.17;6.55;;;;;;;9.38;70.15;100781.91;5066311;28;20073;-85
2022/10/09 04:20:10;;;;;;;10.68;6.03;;;;;;;9.26;69.68;100768.56;5040184;28;20043;-89
2022/10/09 04:22:37;;;;;;;10.88;6.50;;;;;;;9.26;69.31;100778.28;5083214;28;20117;-88
2022/10/09 04:25:04;;;;;;;11.25;6.57;;;;;;;9.26;69.37;100765.91;5054931;28;20056;-89
2022/10/09 04:27:30;;;;;;;15.65;6.47;;;;;;;9.25;69.40;100764.19;5086524;28;20046;-88
2022/10/09 04:29:57;;;;;;;11.63;5.45;;;;;;;9.24;69.78;100766.97;5060829;28;20768;-88
2022/10/09 04:32:24;;;;;;;12.05;6.05;;;;;;;9.23;70.66;100771.41;5101687;28;20458;-89
2022/10/09 04:34:50;;;;;;;12.43;5.78;;;;;;;9.28;69.61;100763.97;5065551;28;20479;-88
2022/10/09 04:37:19;;;;;;;20.58;6.20;;;;;;;9.15;70.72;100771.06;5075622;28;20053;-89
2022/10/09 04:39:45;;;;;;;13.50;5.60;;;;;;;9.21;69.83;100775.09;5061666;28;20128;-88
2022/10/09 04:42:12;;;;;;;10.15;5.45;;;;;;;9.22;69.93;100767.06;5075648;28;20104;-89
2022/10/09 04:44:39;;;;;;;12.57;5.45;;;;;;;9.22;70.06;100763.56;5070485;28;20123;-88
2022/10/09 04:47:06;;;;;;;13.20;5.68;;;;;;;9.25;69.73;100772.16;5065675;28;20052;-89
2022/10/09 04:49:37;;;;;;;12.55;5.93;;;;;;;9.13;70.26;100772.97;5086243;28;20043;-89
2022/10/09 04:52:03;;;;;;;12.18;5.38;;;;;;;9.08;70.38;100769.78;5055014;28;20063;-90
2022/10/09 04:54:30;;;;;;;13.05;6.50;;;;;;;9.16;70.47;100762.19;5086720;28;20084;-89
2022/10/09 04:56:57;;;;;;;11.27;5.65;;;;;;;9.11;69.91;100775.75;5068332;28;20071;-89
2022/10/09 04:59:23;;;;;;;12.07;6.35;;;;;;;9.07;70.18;100763.63;5082178;28;20040;-89
2022/10/09 05:01:50;;;;;;;9.85;5.53;;;;;;;9.16;70.49;100774.56;5069169;28;20070;-88
2022/10/09 05:04:17;;;;;;;13.65;5.97;;;;;;;9.16;70.38;100771.91;5070842;28;20039;-90
2022/10/09 05:06:44;;;;;;;11.98;7.10;;;;;;;9.06;70.88;100767.25;5071114;28;20044;-90
2022/10/09 05:09:10;;;;;;;12.73;8.00;;;;;;;9.17;70.02;100768.34;5070079;28;20040;-90
2022/10/09 05:11:37;;;;;;;16.67;7.40;;;;;;;9.10;70.43;100768.72;5058934;28;20047;-88
2022/10/09 05:14:08;;;;;;;13.05;6.45;;;;;;;9.08;70.02;100770.66;5080799;28;20093;-88
2022/10/09 05:16:35;;;;;;;11.18;7.43;;;;;;;8.99;69.96;100767.75;5058842;28;20139;-88
2022/10/09 05:19:22;;;;;;;14.23;6.35;;;;;;;8.98;70.13;100769.56;5074503;28;20060;-89
2022/10/09 05:21:49;;;;;;;9.80;6.40;;;;;;;8.97;70.67;100769.66;5059335;28;20471;-90
2022/10/09 05:24:15;;;;;;;7.18;5.70;;;;;;;8.98;70.65;100766.06;5052591;28;20044;-89
2022/10/09 05:26:42;;;;;;;20.95;7.03;;;;;;;8.95;71.47;100772.41;5056885;28;20048;-89
2022/10/09 05:29:09;;;;;;;52.92;8.05;;;;;;;9.06;71.09;100764.59;5059098;28;20076;-89
2022/10/09 05:31:36;;;;;;;16.80;7.72;;;;;;;8.97;72.16;100765.22;5052684;28;20402;-89
2022/10/09 05:34:03;;;;;;;9.52;6.38;;;;;;;8.94;72.25;100764.56;5084381;28;20047;-89
2022/10/09 05:36:30;;;;;;;15.52;6.18;;;;;;;8.91;72.24;100760.34;5070472;28;20036;-89
2022/10/09 05:38:59;;;;;;;43.05;7.60;;;;;;;8.97;72.08;100767.84;5053442;28;20039;-88
2022/10/09 05:41:28;;;;;;;9.85;6.35;;;;;;;8.82;73.41;100763.59;5056216;28;20058;-90
2022/10/09 05:44:00;;;;;;;14.88;6.43;;;;;;;8.87;72.49;100764.97;5067015;28;20047;-89
2022/10/09 05:46:28;;;;;;;39.83;7.78;;;;;;;8.82;74.04;100775.03;5074154;28;20040;-90
2022/10/09 05:49:01;;;;;;;15.70;7.20;;;;;;;8.85;73.99;100766.91;5073706;28;20040;-89
2022/10/09 05:51:35;;;;;;;11.90;7.30;;;;;;;8.68;74.35;100772.44;5090114;28;20043;-89
2022/10/09 05:54:03;;;;;;;17.55;6.38;;;;;;;8.82;74.25;100763.59;5075539;28;20075;-87
2022/10/09 05:56:32;;;;;;;28.88;6.55;;;;;;;8.90;73.86;100767.44;5074867;28;20081;-83
2022/10/09 05:59:06;;;;;;;12.95;5.63;;;;;;;8.77;73.82;100765.69;5060094;28;20050;-83
2022/10/09 06:01:35;;;;;;;20.70;6.45;;;;;;;8.88;73.42;100766.69;5084165;28;20089;-83
2022/10/09 06:04:03;;;;;;;26.42;6.70;;;;;;;8.95;73.23;100761.81;5056933;28;20051;-83
2022/10/09 06:06:32;;;;;;;7.80;5.47;;;;;;;8.95;74.21;100758.31;5088997;28;20093;-83
2022/10/09 06:08:58;;;;;;;8.77;5.78;;;;;;;8.99;73.40;100762.47;5053171;28;20055;-82
2022/10/09 06:11:28;;;;;;;6.75;5.07;;;;;;;9.12;72.59;100764.19;5066985;28;20032;-83
2022/10/09 06:13:55;;;;;;;14.15;6.47;;;;;;;9.01;73.38;100764.06;5070636;28;20077;-83
2022/10/09 06:16:25;;;;;;;13.40;6.78;;;;;;;9.01;73.61;100760.56;5059188;28;20062;-83
2022/10/09 06:18:53;;;;;;;29.58;8.75;;;;;;;9.12;72.66;100769.47;5052246;28;20408;-83
2022/10/09 06:21:20;;;;;;;14.60;7.65;;;;;;;9.05;73.23;100770.84;5057890;28;20044;-83
2022/10/09 06:23:51;;;;;;;16.55;7.65;;;;;;;8.97;74.07;100782.91;5072954;28;20044;-83
2022/10/09 06:26:19;;;;;;;18.92;8.40;;;;;;;9.36;73.72;100774.06;5084314;28;20074;-83
2022/10/09 06:28:46;;;;;;;14.43;7.85;;;;;;;9.26;73.82;100775.63;5062743;28;20085;-83
2022/10/09 06:31:19;;;;;;;15.35;8.60;;;;;;;9.37;75.59;100770.47;5072654;28;20028;-83
2022/10/09 06:33:47;;;;;;;22.42;9.48;;;;;;;9.34;75.54;100776.81;5082210;28;20478;-83
2022/10/09 06:36:16;;;;;;;24.15;9.82;;;;;;;9.50;76.02;100781.09;5054059;28;20086;-83
2022/10/09 06:38:43;;;;;;;18.95;9.30;;;;;;;9.59;75.30;100776.94;5066261;28;20047;-83
2022/10/09 06:41:12;;;;;;;24.48;10.13;;;;;;;9.63;76.16;100778.44;5073822;28;20109;-83
2022/10/09 06:43:39;;;;;;;29.15;11.95;;;;;;;9.75;76.05;100781.06;5062670;28;20048;-83
2022/10/09 06:46:08;;;;;;;34.60;13.00;;;;;;;9.67;76.50;100785.22;5068965;28;20039;-83
2022/10/09 06:48:37;;;;;;;26.23;11.43;;;;;;;9.76;75.64;100787.22;5082326;28;20047;-83
2022/10/09 06:51:06;;;;;;;29.27;12.88;;;;;;;9.76;76.41;100792.53;5066879;28;20487;-83
2022/10/09 06:53:44;;;;;;;31.80;13.13;;;;;;;9.59;77.20;100792.84;5050826;28;20441;-83
2022/10/09 06:56:11;;;;;;;31.27;12.70;;;;;;;9.57;76.69;100793.81;5057220;28;20083;-83
2022/10/09 06:58:39;;;;;;;40.35;14.27;;;;;;;9.66;76.67;100789.66;5076524;28;20062;-83
2022/10/09 07:01:14;;;;;;;36.88;13.70;;;;;;;9.60;78.23;100794.56;5043211;28;20557;-84
2022/10/09 07:03:42;;;;;;;34.40;13.35;;;;;;;9.64;77.71;100790.72;5096646;28;20122;-83
2022/10/09 07:06:17;;;;;;;36.22;14.70;;;;;;;9.61;78.68;100789.13;5073210;28;20392;-83
2022/10/09 07:08:48;;;;;;;30.98;14.10;;;;;;;9.52;79.25;100784.47;5061893;28;20040;-83
2022/10/09 07:11:24;;;;;;;32.53;13.88;;;;;;;9.67;78.71;100799.34;5073577;28;20043;-84
2022/10/09 07:13:53;;;;;;;34.33;13.63;;;;;;;9.74;78.06;100789.13;5054176;28;20495;-83
2022/10/09 07:16:22;;;;;;;40.35;14.18;;;;;;;9.70;78.85;100791.16;5067076;28;20048;-82
2022/10/09 07:18:49;;;;;;;37.15;15.02;;;;;;;9.75;78.09;100790.84;5066393;28;20097;-83
2022/10/09 07:21:16;;;;;;;34.25;13.52;;;;;;;9.77;78.73;100786.28;5072590;28;20449;-84
2022/10/09 07:23:43;;;;;;;38.90;14.27;;;;;;;9.93;77.83;100780.75;5073358;28;20417;-83
2022/10/09 07:26:15;;;;;;;33.30;14.75;;;;;;;9.85;78.60;100783.09;5071041;28;20039;-83
2022/10/09 07:28:45;;;;;;;34.10;14.73;;;;;;;10.01;77.72;100778.38;5074542;28;20088;-84
2022/10/09 07:31:13;;;;;;;38.35;14.82;;;;;;;9.99;78.32;100789.09;5057796;28;20075;-84
2022/10/09 07:33:43;;;;;;;37.58;13.77;;;;;;;10.10;77.30;100779.53;5076672;28;20044;-84
2022/10/09 07:36:10;;;;;;;35.67;14.25;;;;;;;10.18;77.41;100779.84;5078151;28;20199;-83
2022/10/09 07:38:36;;;;;;;40.72;15.32;;;;;;;10.14;77.93;100778.34;5075186;28;20408;-83
2022/10/09 07:41:06;;;;;;;36.22;14.73;;;;;;;10.22;77.15;100776.00;5090333;28;20089;-83
2022/10/09 07:43:37;;;;;;;38.58;15.18;;;;;;;10.24;77.24;100771.44;5054754;28;20483;-84
2022/10/09 07:46:05;;;;;;;42.03;14.55;;;;;;;10.13;78.64;100771.38;5077754;28;20101;-83
2022/10/09 07:48:34;;;;;;;34.05;13.85;;;;;;;10.34;76.90;100767.19;5073624;28;20437;-84
2022/10/09 07:51:07;;;;;;;28.70;12.68;;;;;;;10.31;77.62;100766.56;5053810;28;20094;-84
2022/10/09 07:53:34;;;;;;;34.63;14.48;;;;;;;10.42;77.06;100769.28;5048958;28;20113;-83
2022/10/09 07:56:03;;;;;;;28.23;12.43;;;;;;;10.41;76.66;100764.94;5060802;28;20055;-83
2022/10/09 07:58:30;;;;;;;33.03;13.98;;;;;;;10.46;76.45;100765.47;5068015;28;20047;-83
2022/10/09 08:01:03;;;;;;;32.83;12.68;;;;;;;10.47;77.05;100753.88;5074357;28;20096;-83
2022/10/09 08:03:30;;;;;;;31.77;12.60;;;;;;;10.55;76.37;100754.13;5044480;28;20135;-83
2022/10/09 08:05:56;;;;;;;30.30;12.50;;;;;;;10.62;76.04;100763.34;5049490;28;20487;-83
2022/10/09 08:08:23;;;;;;;29.90;13.00;;;;;;;10.73;75.69;100756.41;5085954;28;20486;-84
2022/10/09 08:10:50;;;;;;;26.95;11.88;;;;;;;10.81;75.50;100764.63;5077067;28;20040;-83
2022/10/09 08:13:17;;;;;;;30.52;12.50;;;;;;;10.79;75.26;100759.47;5083273;28;20379;-84
2022/10/09 08:15:44;;;;;;;25.15;12.18;;;;;;;10.89;75.06;100751.66;5087152;28;20036;-83
2022/10/09 08:18:11;;;;;;;28.45;11.20;;;;;;;10.93;75.01;100755.75;5067345;28;20037;-83
2022/10/09 08:20:38;;;;;;;29.65;11.27;;;;;;;10.95;74.90;100747.69;5069955;28;20118;-83
2022/10/09 08:23:05;;;;;;;25.85;10.55;;;;;;;11.00;74.93;100750.84;5075831;28;20040;-83
2022/10/09 08:25:36;;;;;;;29.30;10.68;;;;;;;11.03;75.04;100748.78;5053052;28;20092;-83
2022/10/09 08:28:03;;;;;;;24.25;9.82;;;;;;;11.12;74.68;100747.25;5059615;28;20059;-83
2022/10/09 08:30:30;;;;;;;22.30;10.43;;;;;;;11.18;74.59;100743.28;5059107;28;20048;-83
2022/10/09 08:32:57;;;;;;;24.77;9.20;;;;;;;11.24;74.03;100748.94;5077545;28;20665;-83
2022/10/09 08:35:23;;;;;;;28.60;11.10;;;;;;;11.23;74.45;100754.41;5077803;28;20059;-83
2022/10/09 08:37:50;;;;;;;22.35;9.45;;;;;;;11.28;74.34;100745.09;5069064;28;20121;-83
2022/10/09 08:40:50;;;;;;;22.35;10.02;;;;;;;11.21;74.40;100745.69;5060377;28;20411;-83
2022/10/09 08:43:33;;;;;;;21.27;8.90;;;;;;;11.27;73.77;100743.41;5057253;28;20471;-82
2022/10/09 08:46:02;;;;;;;25.75;9.35;;;;;;;11.38;73.84;100739.09;5058667;28;20121;-82
2022/10/09 08:48:34;;;;;;;18.25;8.00;;;;;;;11.44;73.88;100741.25;5074728;28;20101;-83
2022/10/09 08:51:02;;;;;;;21.00;7.70;;;;;;;11.50;73.67;100740.81;5072655;28;20067;-82
2022/10/09 08:53:37;;;;;;;23.17;9.23;;;;;;;11.54;73.63;100733.41;5056509;28;20070;-83
2022/10/09 08:56:05;;;;;;;25.95;9.20;;;;;;;11.56;73.48;100731.50;5060830;28;20079;-83
2022/10/09 08:58:33;;;;;;;28.25;7.90;;;;;;;11.62;73.63;100731.00;5058390;28;20449;-83
2022/10/09 09:01:35;;;;;;;22.00;8.18;;;;;;;11.66;73.14;100735.13;5077810;28;20047;-83
2022/10/09 09:04:31;;;;;;;18.17;5.88;;;;;;;11.65;73.94;100723.63;5023783;28;20047;-83
2022/10/09 09:07:34;;;;;;;18.15;7.05;;;;;;;11.77;73.63;100718.31;5089223;28;20647;-83
2022/10/09 09:10:16;;;;;;;18.57;7.10;;;;;;;11.76;73.61;100717.47;5049025;28;20491;-83
2022/10/09 09:13:23;;;;;;;13.95;5.95;;;;;;;11.84;73.30;100715.03;5087344;28;20046;-83
2022/10/09 09:15:54;;;;;;;15.80;6.07;;;;;;;11.87;73.33;100708.66;4987507;28;20042;-83
2022/10/09 09:18:36;;;;;;;18.33;6.47;;;;;;;11.90;73.19;100703.91;5056394;28;20434;-82
2022/10/09 09:21:21;;;;;;;18.02;6.00;;;;;;;11.89;71.63;100702.22;5110873;28;20042;-83
2022/10/09 09:23:48;;;;;;;14.50;6.30;;;;;;;11.99;72.03;100694.34;5058158;28;20069;-83
2022/10/09 09:26:16;;;;;;;13.70;6.00;;;;;;;12.05;72.18;100701.00;5070501;28;20389;-83
2022/10/09 09:28:43;;;;;;;17.80;6.40;;;;;;;12.09;72.09;100694.47;5058348;28;20109;-83
2022/10/09 09:31:27;;;;;;;11.85;5.80;;;;;;;12.11;72.22;100690.72;5067005;28;20044;-82
2022/10/09 09:34:10;;;;;;;12.90;5.65;;;;;;;12.15;71.81;100692.13;5073456;28;20059;-83
2022/10/09 09:36:54;;;;;;;14.10;5.55;;;;;;;12.11;71.85;100682.72;5085731;28;20104;-83
2022/10/09 09:39:23;;;;;;;14.75;6.88;;;;;;;12.21;71.82;100680.13;5068851;28;20048;-83
2022/10/09 09:42:16;;;;;;;15.95;6.35;;;;;;;12.22;71.56;100678.34;5056170;28;20121;-83
2022/10/09 09:44:59;;;;;;;13.65;4.22;;;;;;;12.21;70.91;100680.13;5090805;28;20044;-82
2022/10/09 09:47:37;;;;;;;15.57;5.30;;;;;;;12.27;70.92;100665.50;5065798;28;20514;-83
2022/10/09 09:50:05;;;;;;;13.75;4.75;;;;;;;12.35;71.11;100663.88;5067638;28;20051;-83
2022/10/09 09:52:39;;;;;;;15.93;5.20;;;;;;;12.40;70.94;100674.16;5075435;28;20115;-83
2022/10/09 09:55:06;;;;;;;13.93;4.72;;;;;;;12.45;70.65;100657.78;5088907;28;20089;-83
2022/10/09 09:57:35;;;;;;;20.25;5.75;;;;;;;12.46;69.58;100649.66;5055814;28;20051;-83
2022/10/09 10:00:28;;;;;;;12.25;4.82;;;;;;;12.35;66.92;100658.53;5082300;28;20051;-83
2022/10/09 10:03:22;;;;;;;14.52;4.68;;;;;;;12.43;68.56;100647.25;5065161;28;20043;-83
2022/10/09 10:05:48;;;;;;;10.77;4.22;;;;;;;12.53;68.83;100642.00;5063311;28;20445;-83
2022/10/09 10:08:30;;;;;;;9.77;4.18;;;;;;;12.52;68.00;100640.31;5076298;28;20047;-83
2022/10/09 10:10:59;;;;;;;9.95;3.97;;;;;;;12.59;68.39;100631.69;5083588;28;20073;-83
2022/10/09 10:13:33;;;;;;;14.23;4.32;;;;;;;12.63;68.64;100632.25;5072636;28;20062;-83
2022/10/09 10:16:00;;;;;;;11.80;4.15;;;;;;;12.68;68.86;100630.06;5074453;28;20048;-83
2022/10/09 10:18:31;;;;;;;11.65;3.97;;;;;;;12.72;68.76;100626.16;5093432;28;20051;-83
2022/10/09 10:21:10;;;;;;;7.50;4.38;;;;;;;12.69;68.04;100628.22;5072256;28;20060;-82
2022/10/09 10:23:40;;;;;;;12.13;4.10;;;;;;;12.77;68.17;100618.63;5073450;28;20044;-83
2022/10/09 10:26:19;;;;;;;14.20;4.47;;;;;;;12.73;65.88;100617.19;5070792;28;20099;-83
2022/10/09 10:28:51;;;;;;;10.30;4.35;;;;;;;12.82;67.52;100616.41;5066513;28;20101;-83
2022/10/09 10:31:35;;;;;;;13.13;3.97;;;;;;;12.79;66.39;100611.31;5072805;28;20078;-83
2022/10/09 10:34:02;;;;;;;9.85;4.13;;;;;;;12.89;67.22;100608.72;5064619;28;20056;-83
2022/10/09 10:36:29;;;;;;;8.65;3.90;;;;;;;12.92;67.18;100602.28;5048184;28;20047;-82
2022/10/09 10:39:04;;;;;;;6.75;3.58;;;;;;;12.92;66.50;100599.63;5049611;28;20040;-82
2022/10/09 10:41:35;;;;;;;6.75;3.45;;;;;;;12.96;67.02;100596.56;5082259;28;20043;-83
2022/10/09 10:44:17;;;;;;;9.85;3.58;;;;;;;12.95;66.63;100599.34;5057013;28;20733;-82
2022/10/09 10:46:58;;;;;;;13.50;4.68;;;;;;;12.97;66.72;100587.56;5072043;28;20044;-82
2022/10/09 10:49:25;;;;;;;20.13;4.97;;;;;;;13.05;66.62;100581.56;5087759;28;20036;-82
2022/10/09 10:52:46;;;;;;;9.10;3.97;;;;;;;12.99;65.95;100577.63;5059112;28;20115;-82
2022/10/09 10:55:31;;;;;;;13.60;4.18;;;;;;;13.01;66.07;100572.16;5065295;28;20118;-82
2022/10/09 10:58:27;;;;;;;14.63;4.35;;;;;;;13.06;64.58;100583.28;5102554;28;20441;-82
2022/10/09 11:01:05;;;;;;;9.30;4.57;;;;;;;13.09;63.15;100579.50;5089565;28;20043;-82
2022/10/09 11:03:41;;;;;;;9.38;4.63;;;;;;;13.14;64.41;100577.28;5087060;28;20463;-82
2022/10/09 11:06:21;;;;;;;11.38;4.57;;;;;;;13.19;65.71;100570.56;5069128;28;20055;-82
2022/10/09 11:09:10;;;;;;;12.65;4.03;;;;;;;13.20;65.87;100566.94;5039321;28;20048;-82
2022/10/09 11:11:49;;;;;;;11.98;5.25;;;;;;;13.27;66.25;100556.56;5032147;28;20135;-82
2022/10/09 11:14:34;;;;;;;9.82;3.78;;;;;;;13.28;66.21;100557.41;5057914;28;20081;-82
2022/10/09 11:17:17;;;;;;;14.88;4.72;;;;;;;13.34;65.97;100555.06;5065399;28;20052;-82
2022/10/09 11:19:52;;;;;;;;;;;;;;;13.23;65.80;100541.81;5082707;28;20043;-82
2022/10/09 11:22:27;;;;;;;12.15;4.18;;;;;;;13.38;65.86;100536.94;5069605;28;19924;-83
2022/10/09 11:25:12;;;;;;;9.40;4.07;;;;;;;13.44;66.29;100536.41;5097512;28;20040;-81
2022/10/09 11:28:02;;;;;;;12.07;4.20;;;;;;;13.46;65.60;100534.47;5070257;28;20063;-81
2022/10/09 11:30:41;;;;;;;8.23;3.92;;;;;;;13.52;65.66;100531.22;5070971;28;20057;-81
2022/10/09 11:33:28;;;;;;;12.65;3.72;;;;;;;13.51;64.93;100524.22;5086349;28;20043;-81
2022/10/09 11:36:05;;;;;;;11.32;3.45;;;;;;;13.60;65.07;100522.53;5064993;28;20040;-81
2022/10/09 11:38:37;;;;;;;10.55;3.95;;;;;;;13.66;64.70;100530.84;5070676;28;20044;-81